< < Back
Terminal Aerodrome Forecast


Current Version              Previous Versions:   1  2  3  4  5  6  7  8  9  

Terminal Aerodrome Forecast

507
FTUS44 KMRX 291120
TAFCHA
TAF
KCHA 291120Z 2912/3012 35003KT 5SM BR FEW006 BKN250
     FM291300 36005KT P6SM SCT045
     FM300300 01003KT P6SM SCT050=

Latest METAR

591
SAUS80 KWBC 300000 RRB
MTRCHA
METAR KCHA 292353Z 03008KT 10SM SCT060 SCT150 BKN250 32/22 A2996 RMK AO2
SLP137 T03220222 10350 20322 53006


USA.gov is the U.S. government's official web portal to all federal, state and local government web resources and services.